createdAt,value
2023-02-11T00:02:41.307Z,2.58
2023-02-11T02:02:34.235Z,3.44
2023-02-11T02:32:47.567Z,3.45
2023-02-11T03:32:41.611Z,3.43
2023-02-11T04:02:55.465Z,3.43
2023-02-11T04:32:41.379Z,3.54
2023-02-11T05:02:42.776Z,3.64
2023-02-11T05:32:52.345Z,3.7
2023-02-11T06:32:44.464Z,3.94
2023-02-11T07:02:37.157Z,4.26
2023-02-11T07:32:51.917Z,4.98
2023-02-11T08:02:38.793Z,5.27
2023-02-11T08:32:38.358Z,5.35
2023-02-11T09:02:35.819Z,5.55
2023-02-11T09:32:37.545Z,5.61
2023-02-11T10:32:29.337Z,6.03
2023-02-11T11:02:38.736Z,6.04
2023-02-11T11:32:30.916Z,6.04
2023-02-11T12:02:32.056Z,6.42
2023-02-11T12:32:29.947Z,6.62
2023-02-11T13:02:33.502Z,6.54
2023-02-11T13:32:27.533Z,6.67
2023-02-11T14:02:28.792Z,6.73
2023-02-11T14:32:36.033Z,6.63
2023-02-11T15:02:26.278Z,6.59
2023-02-11T15:32:36.099Z,6.55
2023-02-11T16:02:35.960Z,6.57
2023-02-11T16:32:29.430Z,6.64
2023-02-11T17:02:29.033Z,6.56
2023-02-11T17:32:30.664Z,6.55
2023-02-11T18:32:30.158Z,6.56
2023-02-11T19:02:27.560Z,6.47
2023-02-11T19:32:25.637Z,6.33
2023-02-11T20:02:29.504Z,6.27
2023-02-11T20:32:25.114Z,6.2
2023-02-11T21:32:30.626Z,6.07
2023-02-11T22:02:27.878Z,6.16
2023-02-11T22:32:23.504Z,5.94
2023-02-11T23:02:30.285Z,5.82
2023-02-11T23:32:29.201Z,5.77
